Willcox, Arizona
Current Conditions -  °F | °C
As of 5:51 PM on Thursday 27 Nov 2014 (Local Time) from KSAD Reporting Station
Clear Clear  
Wind Chill: 59°   Ceiling: Unl
Heat Index: 59°   Visibility: 10mi
Dew Point: 19°   Wind: 5mph
Humidity: 21%   Direction: 80°E
Pressure: 30.21"   Gusts: NA
Location:  32.25°N, 109.84°W
Report Text: KSAD 280051Z AUTO 08004KT 10SM CLR 15/M07 A3021 RMK AO2 SLP217 T01501072
Loading
Personal Weather Stations






























Interactive Weather Map New forecast layout! Learn more

10-Day Weather Forecast

Advertisements
Track Severe Weather on mobile